Time;durP1;ratioP1;P1;durP2;ratioP2;P2;SDS_P1;SDS_P2;PMS_P1;PMS_P2;Temp;Humidity;BMP_temperature;BMP_pressure;BME280_temperature;BME280_humidity;BME280_pressure;Samples;Min_cycle;Max_cycle;Signal;HPM_P1;HPM_P2
2024/01/20 00:01:25;;;;;;;3.83;3.13;;;2.10;99.90;;;;;;7370834;19;20186;-79
2024/01/20 00:03:52;;;;;;;2.07;1.87;;;2.20;99.90;;;;;;7370317;19;20138;-80
2024/01/20 00:06:18;;;;;;;1.60;1.10;;;2.20;99.90;;;;;;7392679;19;20154;-78
2024/01/20 00:08:44;;;;;;;1.30;1.20;;;2.20;99.90;;;;;;7369600;19;20653;-79
2024/01/20 00:11:10;;;;;;;1.77;1.37;;;2.00;99.90;;;;;;7370595;19;20273;-79
2024/01/20 00:13:37;;;;;;;1.87;1.63;;;2.10;99.90;;;;;;7370098;19;20194;-79
2024/01/20 00:16:03;;;;;;;1.97;1.60;;;2.10;99.90;;;;;;7370341;19;20142;-78
2024/01/20 00:18:29;;;;;;;1.90;1.70;;;2.10;99.90;;;;;;7391179;19;20135;-79
2024/01/20 00:20:57;;;;;;;2.67;1.63;;;2.10;99.90;;;;;;7368614;19;20583;-78
2024/01/20 00:23:23;;;;;;;1.80;1.37;;;2.10;99.90;;;;;;7370011;19;20196;-79
2024/01/20 00:25:49;;;;;;;1.80;0.93;;;2.10;99.90;;;;;;7367855;19;20221;-79
2024/01/20 00:28:17;;;;;;;2.67;2.43;;;2.10;99.90;;;;;;7368945;19;20683;-78
2024/01/20 00:30:42;;;;;;;1.53;1.17;;;2.10;99.90;;;;;;7391475;19;20599;-78
2024/01/20 00:33:08;;;;;;;1.73;1.63;;;2.10;99.90;;;;;;7369639;19;20190;-77
2024/01/20 00:35:36;;;;;;;2.03;1.63;;;2.10;99.90;;;;;;7368450;19;20205;-78
2024/01/20 00:38:03;;;;;;;1.77;1.67;;;2.10;99.90;;;;;;7368406;19;20202;-79
2024/01/20 00:40:29;;;;;;;1.50;1.20;;;2.10;99.90;;;;;;7367982;19;20186;-79
2024/01/20 00:42:56;;;;;;;0.87;0.87;;;2.10;99.90;;;;;;7368097;19;20131;-79
2024/01/20 00:45:22;;;;;;;1.47;1.37;;;2.00;99.90;;;;;;7391603;19;20150;-79
2024/01/20 00:47:47;;;;;;;1.07;0.83;;;2.00;99.90;;;;;;7368147;19;20841;-78
2024/01/20 00:50:13;;;;;;;1.73;1.63;;;2.00;99.90;;;;;;7367292;19;20198;-79
2024/01/20 00:52:39;;;;;;;1.63;1.53;;;2.10;99.90;;;;;;7367492;19;20209;-79
2024/01/20 00:55:05;;;;;;;1.47;1.37;;;2.10;99.90;;;;;;7368715;19;20142;-78
2024/01/20 00:57:31;;;;;;;2.77;2.37;;;2.10;99.90;;;;;;7389868;19;20512;-78
2024/01/20 00:59:57;;;;;;;1.87;1.67;;;2.10;99.90;;;;;;7364155;19;20318;-78
2024/01/20 01:02:24;;;;;;;1.50;1.40;;;1.90;99.90;;;;;;7368785;19;20189;-77
2024/01/20 01:04:50;;;;;;;2.30;1.90;;;1.90;99.90;;;;;;7368472;19;20209;-78
2024/01/20 01:07:16;;;;;;;1.60;1.50;;;1.90;99.90;;;;;;7367063;19;20228;-79
2024/01/20 01:09:42;;;;;;;1.10;0.97;;;1.90;99.90;;;;;;7387517;19;20130;-77
2024/01/20 01:12:07;;;;;;;0.90;0.73;;;1.90;99.90;;;;;;7367975;19;20198;-78
2024/01/20 01:14:33;;;;;;;1.67;1.57;;;2.10;99.90;;;;;;7365278;19;20696;-78
2024/01/20 01:17:00;;;;;;;2.20;1.40;;;2.00;99.90;;;;;;7367290;19;20190;-77
2024/01/20 01:19:26;;;;;;;1.13;1.10;;;2.00;99.90;;;;;;7366456;19;20182;-78
2024/01/20 01:21:52;;;;;;;3.20;1.77;;;2.00;99.90;;;;;;7367045;19;20468;-78
2024/01/20 01:24:18;;;;;;;2.20;1.77;;;2.00;99.90;;;;;;7389788;19;20135;-79
2024/01/20 01:26:43;;;;;;;1.20;1.10;;;2.00;99.90;;;;;;7366639;19;20197;-77
2024/01/20 01:29:09;;;;;;;1.70;1.60;;;1.90;99.90;;;;;;7365269;19;20654;-77
2024/01/20 01:31:35;;;;;;;2.07;1.37;;;2.00;99.90;;;;;;7367830;19;20186;-78
2024/01/20 01:34:02;;;;;;;1.57;1.47;;;2.00;99.90;;;;;;7367440;19;20134;-79
2024/01/20 01:36:30;;;;;;;2.10;1.90;;;2.00;99.90;;;;;;7388735;19;20468;-79
2024/01/20 01:38:55;;;;;;;1.87;1.50;;;1.90;99.90;;;;;;7367514;19;20190;-79
2024/01/20 01:41:21;;;;;;;1.27;1.17;;;1.90;99.90;;;;;;7365304;19;20186;-78
2024/01/20 01:43:47;;;;;;;3.07;1.47;;;1.90;99.90;;;;;;7366600;19;20221;-79
2024/01/20 01:46:13;;;;;;;2.00;1.90;;;1.90;99.90;;;;;;7368123;19;20190;-79
2024/01/20 01:48:39;;;;;;;4.27;1.53;;;1.90;99.90;;;;;;7389231;19;20472;-79
2024/01/20 01:51:05;;;;;;;2.60;2.40;;;1.90;99.90;;;;;;7366493;19;20201;-78
2024/01/20 01:53:32;;;;;;;2.13;1.30;;;2.00;99.90;;;;;;7367391;19;20270;-79
2024/01/20 01:56:00;;;;;;;2.53;2.33;;;2.00;99.90;;;;;;7367691;19;20190;-78
2024/01/20 01:58:27;;;;;;;2.70;1.80;;;1.90;99.90;;;;;;7366232;19;20221;-78
2024/01/20 02:00:53;;;;;;;2.50;2.30;;;2.00;99.90;;;;;;7366797;19;20139;-79
2024/01/20 02:03:19;;;;;;;2.67;2.37;;;2.00;99.90;;;;;;7387551;19;20162;-78
2024/01/20 02:05:45;;;;;;;2.03;1.70;;;2.00;99.90;;;;;;7366269;19;20198;-79
2024/01/20 02:08:11;;;;;;;2.30;2.13;;;2.00;99.90;;;;;;7365751;19;20266;-79
2024/01/20 02:10:38;;;;;;;2.57;1.33;;;2.00;99.90;;;;;;7367248;19;20193;-78
2024/01/20 02:13:04;;;;;;;2.73;1.57;;;2.00;99.90;;;;;;7371953;19;20135;-78
2024/01/20 02:15:32;;;;;;;1.33;1.23;;;2.00;99.90;;;;;;7395164;19;20645;-78
2024/01/20 02:17:57;;;;;;;2.00;1.50;;;1.70;99.90;;;;;;7373093;19;20225;-78
2024/01/20 02:20:24;;;;;;;2.37;2.17;;;1.80;99.90;;;;;;7373529;19;20193;-78
2024/01/20 02:22:50;;;;;;;1.70;1.17;;;1.80;99.90;;;;;;7374038;19;21487;-77
2024/01/20 02:25:16;;;;;;;2.00;1.63;;;1.80;99.90;;;;;;7374547;19;20186;-78
2024/01/20 02:27:41;;;;;;;2.53;2.30;;;1.80;99.90;;;;;;7394540;19;20494;-78
2024/01/20 02:30:08;;;;;;;2.67;2.10;;;1.70;99.90;;;;;;7372859;19;20197;-80
2024/01/20 02:32:34;;;;;;;2.17;1.87;;;1.60;99.90;;;;;;7373383;19;20190;-78
2024/01/20 02:34:59;;;;;;;1.63;1.53;;;1.50;99.90;;;;;;7373466;19;20192;-79
2024/01/20 02:37:25;;;;;;;1.70;1.60;;;1.60;99.90;;;;;;7373564;19;20572;-79
2024/01/20 02:39:52;;;;;;;2.30;1.70;;;1.60;99.90;;;;;;7373564;19;20138;-77
2024/01/20 02:42:18;;;;;;;2.43;2.23;;;1.60;99.90;;;;;;7396405;19;20489;-79
2024/01/20 02:44:44;;;;;;;2.47;2.13;;;1.60;99.90;;;;;;7373577;19;20210;-79
2024/01/20 02:47:10;;;;;;;1.17;1.07;;;1.60;99.90;;;;;;7372492;19;21184;-78
2024/01/20 02:49:35;;;;;;;2.33;2.13;;;1.60;99.90;;;;;;7371486;19;20198;-78
2024/01/20 02:52:01;;;;;;;2.00;1.87;;;1.70;99.90;;;;;;7371771;19;20186;-77
2024/01/20 02:54:27;;;;;;;3.00;2.27;;;1.70;99.90;;;;;;7390995;19;20145;-78
2024/01/20 02:56:53;;;;;;;2.37;2.20;;;1.70;99.90;;;;;;7373645;19;21076;-78
2024/01/20 02:59:18;;;;;;;1.97;1.53;;;1.80;99.90;;;;;;7372670;19;20659;-78
2024/01/20 03:01:44;;;;;;;2.13;1.73;;;1.80;99.90;;;;;;7373539;19;20265;-79
2024/01/20 03:04:10;;;;;;;3.17;2.77;;;1.90;99.90;;;;;;7372419;19;21048;-78
2024/01/20 03:06:36;;;;;;;1.73;1.63;;;1.80;99.90;;;;;;7392874;19;20135;-79
2024/01/20 03:09:01;;;;;;;1.50;1.40;;;1.80;99.90;;;;;;7373136;19;20692;-78
2024/01/20 03:11:27;;;;;;;3.43;2.33;;;1.80;99.90;;;;;;7370973;19;20194;-78
2024/01/20 03:13:53;;;;;;;2.50;2.10;;;1.70;99.90;;;;;;7373012;19;20228;-78
2024/01/20 03:16:18;;;;;;;2.03;1.83;;;1.90;99.90;;;;;;7370802;19;20198;-78
2024/01/20 03:18:44;;;;;;;3.67;2.20;;;1.80;99.90;;;;;;7395443;19;20131;-79
2024/01/20 03:21:10;;;;;;;1.57;1.47;;;1.80;99.90;;;;;;7371668;19;20189;-79
2024/01/20 03:23:36;;;;;;;1.77;1.63;;;1.80;99.90;;;;;;7366337;19;20318;-77
2024/01/20 03:26:10;;;;;;;2.13;1.90;;;1.80;99.90;;;;;;7371554;19;20193;-78
2024/01/20 03:28:36;;;;;;;2.57;1.80;;;1.90;99.90;;;;;;7372665;19;20185;-79
2024/01/20 03:31:02;;;;;;;0.87;0.87;;;1.90;99.90;;;;;;7370520;19;20226;-79
2024/01/20 03:33:29;;;;;;;4.13;3.10;;;1.80;99.90;;;;;;7396432;19;20252;-78
2024/01/20 03:35:54;;;;;;;2.43;1.87;;;1.60;99.90;;;;;;7371932;19;20261;-78
2024/01/20 03:38:20;;;;;;;2.83;2.50;;;1.50;99.90;;;;;;7372657;19;20224;-78
2024/01/20 03:40:46;;;;;;;2.47;2.27;;;1.60;99.90;;;;;;7370573;19;20196;-78
2024/01/20 03:43:12;;;;;;;2.80;1.50;;;1.50;99.90;;;;;;7367832;19;20202;-78
2024/01/20 03:45:40;;;;;;;1.63;1.53;;;1.60;99.90;;;;;;7393098;19;20146;-78
2024/01/20 03:48:05;;;;;;;1.73;1.63;;;1.50;99.90;;;;;;7371568;19;20257;-79
2024/01/20 03:50:31;;;;;;;1.57;1.47;;;1.50;99.90;;;;;;7369076;19;20194;-77
2024/01/20 03:52:57;;;;;;;2.17;1.70;;;1.50;99.90;;;;;;7371206;19;20181;-79
2024/01/20 03:55:22;;;;;;;1.70;1.43;;;1.50;99.90;;;;;;7370135;19;20186;-80
2024/01/20 03:57:48;;;;;;;2.30;1.80;;;1.50;99.90;;;;;;7370953;19;20154;-79
2024/01/20 04:00:14;;;;;;;3.57;2.77;;;1.60;99.90;;;;;;7390251;19;20144;-79
2024/01/20 04:02:41;;;;;;;1.83;1.60;;;1.50;99.90;;;;;;7371398;19;20240;-78
2024/01/20 04:05:07;;;;;;;2.10;1.33;;;1.50;99.90;;;;;;7370990;19;20257;-78
2024/01/20 04:07:33;;;;;;;2.47;2.27;;;1.60;99.90;;;;;;7372286;19;20178;-78
2024/01/20 04:09:59;;;;;;;2.83;2.10;;;1.60;99.90;;;;;;7370195;19;20496;-79
2024/01/20 04:12:25;;;;;;;1.57;1.47;;;1.60;99.90;;;;;;7393252;19;20134;-79
2024/01/20 04:14:51;;;;;;;1.93;1.40;;;1.70;99.90;;;;;;7370540;19;20194;-80
2024/01/20 04:17:16;;;;;;;3.73;2.60;;;1.60;99.90;;;;;;7368255;19;20218;-78
2024/01/20 04:19:42;;;;;;;2.93;2.63;;;1.60;99.90;;;;;;7370412;19;20194;-78
2024/01/20 04:22:08;;;;;;;3.60;3.20;;;1.70;99.90;;;;;;7368711;19;20204;-77
2024/01/20 04:24:34;;;;;;;3.70;2.40;;;1.70;99.90;;;;;;7391972;19;20153;-78
2024/01/20 04:26:59;;;;;;;3.27;2.60;;;1.70;99.90;;;;;;7368809;19;20249;-76
2024/01/20 04:29:25;;;;;;;2.30;1.60;;;1.80;99.90;;;;;;7370865;19;20268;-79
2024/01/20 04:31:51;;;;;;;2.57;2.37;;;1.70;99.90;;;;;;7370460;19;20197;-78
2024/01/20 04:34:17;;;;;;;2.30;2.03;;;1.70;99.90;;;;;;7367402;19;20204;-77
2024/01/20 04:36:42;;;;;;;2.10;1.90;;;1.70;99.90;;;;;;7391519;19;20131;-78
2024/01/20 04:39:08;;;;;;;2.43;2.23;;;1.80;99.90;;;;;;7369400;19;20216;-79
2024/01/20 04:41:34;;;;;;;2.47;1.93;;;1.70;99.90;;;;;;7368956;19;20806;-79
2024/01/20 04:43:59;;;;;;;3.27;2.37;;;1.70;99.90;;;;;;7368031;19;20193;-78
2024/01/20 04:46:25;;;;;;;2.80;2.60;;;1.70;99.90;;;;;;7368982;19;20593;-79
2024/01/20 04:48:51;;;;;;;1.30;1.20;;;1.70;99.90;;;;;;7368015;19;20131;-77
2024/01/20 04:51:16;;;;;;;3.13;2.53;;;1.70;99.90;;;;;;7389642;19;20201;-78
2024/01/20 04:53:42;;;;;;;2.23;1.77;;;1.70;99.90;;;;;;7367008;19;20185;-79
2024/01/20 04:56:08;;;;;;;4.90;3.07;;;1.70;99.90;;;;;;7368732;19;20886;-78
2024/01/20 04:58:34;;;;;;;2.60;2.20;;;1.70;99.90;;;;;;7367583;19;20884;-77
2024/01/20 05:01:00;;;;;;;2.17;2.03;;;1.60;99.90;;;;;;7366845;19;20135;-77
2024/01/20 05:03:25;;;;;;;2.20;2.03;;;1.50;99.90;;;;;;7390942;19;20134;-79
2024/01/20 05:05:51;;;;;;;1.80;1.70;;;1.50;99.90;;;;;;7367989;19;20197;-78
2024/01/20 05:08:17;;;;;;;2.90;2.13;;;1.60;99.90;;;;;;7367640;19;20250;-78
2024/01/20 05:10:43;;;;;;;3.30;2.20;;;1.60;99.90;;;;;;7367782;19;20205;-76
2024/01/20 05:13:08;;;;;;;2.73;1.73;;;1.60;99.90;;;;;;7368985;19;20539;-79
2024/01/20 05:15:34;;;;;;;2.00;1.80;;;1.60;99.90;;;;;;7391959;19;20143;-80
2024/01/20 05:18:00;;;;;;;2.00;1.90;;;1.60;99.90;;;;;;7368706;19;20739;-79
2024/01/20 05:20:26;;;;;;;3.60;2.97;;;1.60;99.90;;;;;;7369175;19;20186;-79
2024/01/20 05:22:51;;;;;;;2.70;1.47;;;1.50;99.90;;;;;;7367429;19;20930;-79
2024/01/20 05:25:17;;;;;;;1.90;1.80;;;1.50;99.90;;;;;;7367889;19;20193;-77
2024/01/20 05:27:43;;;;;;;2.87;2.53;;;1.40;99.90;;;;;;7390314;19;20146;-78
2024/01/20 05:30:09;;;;;;;1.80;1.50;;;1.40;99.90;;;;;;7368245;19;20198;-78
2024/01/20 05:32:40;;;;;;;3.00;2.57;;;1.40;99.90;;;;;;7368749;19;20190;-79
2024/01/20 05:35:06;;;;;;;1.30;1.27;;;1.30;99.90;;;;;;7367406;19;20210;-78
2024/01/20 05:37:31;;;;;;;2.53;1.57;;;1.30;99.90;;;;;;7367727;19;20189;-78
2024/01/20 05:39:57;;;;;;;1.40;1.30;;;1.30;99.90;;;;;;7365766;19;20166;-78
2024/01/20 05:42:23;;;;;;;2.40;2.20;;;1.30;99.90;;;;;;7389315;19;20150;-79
2024/01/20 05:44:49;;;;;;;2.03;1.87;;;1.30;99.90;;;;;;7367018;19;20238;-78
2024/01/20 05:47:14;;;;;;;2.03;1.30;;;1.20;99.90;;;;;;7372183;19;20197;-79
2024/01/20 05:49:40;;;;;;;2.23;1.83;;;1.20;99.90;;;;;;7372843;19;20190;-79
2024/01/20 05:52:06;;;;;;;1.33;1.23;;;1.20;99.90;;;;;;7371079;19;20555;-78
2024/01/20 05:54:32;;;;;;;1.37;1.10;;;1.20;99.90;;;;;;7396326;19;20452;-78
2024/01/20 05:56:58;;;;;;;1.30;1.20;;;1.20;99.90;;;;;;7373961;19;20201;-79
2024/01/20 05:59:23;;;;;;;3.00;2.40;;;1.20;99.90;;;;;;7374290;19;20197;-78
2024/01/20 06:01:52;;;;;;;4.83;2.90;;;1.20;99.90;;;;;;7373822;19;20198;-78
2024/01/20 06:04:18;;;;;;;5.43;2.97;;;1.20;99.90;;;;;;7374639;19;20198;-77
2024/01/20 06:06:45;;;;;;;1.13;1.03;;;1.10;99.90;;;;;;7396257;19;20604;-79
2024/01/20 06:09:11;;;;;;;2.47;1.60;;;1.00;99.90;;;;;;7373389;19;20244;-77
2024/01/20 06:11:37;;;;;;;2.93;2.73;;;1.00;99.90;;;;;;7375106;19;20185;-78
2024/01/20 06:14:02;;;;;;;2.17;1.43;;;1.00;99.90;;;;;;7373708;19;20265;-79
2024/01/20 06:16:28;;;;;;;2.03;1.80;;;1.10;99.90;;;;;;7374406;19;20277;-79
2024/01/20 06:18:54;;;;;;;2.80;2.60;;;1.00;99.90;;;;;;7373516;19;20180;-78
2024/01/20 06:21:23;;;;;;;2.07;1.93;;;0.80;99.90;;;;;;7395591;19;20800;-79
2024/01/20 06:23:49;;;;;;;1.20;1.17;;;0.80;99.90;;;;;;7372968;19;20627;-78
2024/01/20 06:26:15;;;;;;;2.83;2.53;;;0.90;99.90;;;;;;7373101;19;20182;-78
2024/01/20 06:28:42;;;;;;;2.00;1.90;;;0.90;99.90;;;;;;7372335;19;20539;-78
2024/01/20 06:31:08;;;;;;;2.10;1.90;;;1.00;99.90;;;;;;7371217;19;20183;-77
2024/01/20 06:33:34;;;;;;;2.30;1.93;;;1.00;99.90;;;;;;7393954;19;20462;-78
2024/01/20 06:36:00;;;;;;;1.80;1.67;;;1.10;99.90;;;;;;7373074;19;20190;-78
2024/01/20 06:38:28;;;;;;;4.37;3.97;;;1.20;99.90;;;;;;7374260;19;20186;-77
2024/01/20 06:40:56;;;;;;;2.37;2.17;;;1.10;99.90;;;;;;7371131;19;20190;-82
2024/01/20 06:43:22;;;;;;;2.17;1.87;;;1.10;99.90;;;;;;7373744;19;20190;-80
2024/01/20 06:45:48;;;;;;;2.03;1.83;;;1.00;99.90;;;;;;7378135;19;20490;-80
2024/01/20 06:48:14;;;;;;;2.17;1.93;;;1.00;99.90;;;;;;7394878;19;20159;-79
2024/01/20 06:50:43;;;;;;;2.63;2.37;;;1.00;99.90;;;;;;7371421;19;20197;-81
2024/01/20 06:53:11;;;;;;;3.47;2.00;;;0.90;99.90;;;;;;7370149;19;20794;-81
2024/01/20 06:55:38;;;;;;;1.50;1.40;;;1.00;99.90;;;;;;7371550;19;20190;-81
2024/01/20 06:58:03;;;;;;;4.53;3.03;;;0.90;99.90;;;;;;7370928;19;20896;-81
2024/01/20 07:00:30;;;;;;;1.93;1.83;;;0.90;99.90;;;;;;7395111;19;20150;-80
2024/01/20 07:02:58;;;;;;;2.07;1.93;;;0.90;99.90;;;;;;7371942;19;20201;-80
2024/01/20 07:05:24;;;;;;;2.40;1.50;;;0.90;99.90;;;;;;7372688;19;21169;-81
2024/01/20 07:07:49;;;;;;;1.30;1.20;;;0.90;99.90;;;;;;7369326;19;20326;-79
2024/01/20 07:10:15;;;;;;;1.80;1.70;;;0.90;99.90;;;;;;7371580;19;20185;-79
2024/01/20 07:12:41;;;;;;;2.03;1.87;;;0.90;99.90;;;;;;7391042;19;20131;-80
2024/01/20 07:15:07;;;;;;;3.40;2.27;;;1.00;99.90;;;;;;7371323;19;20210;-79
2024/01/20 07:17:34;;;;;;;3.07;1.90;;;1.00;99.90;;;;;;7368424;19;20194;-80
2024/01/20 07:20:00;;;;;;;2.43;2.07;;;1.00;99.90;;;;;;7369808;19;20193;-79
2024/01/20 07:22:26;;;;;;;3.77;2.43;;;0.70;99.90;;;;;;7371617;19;20201;-78
2024/01/20 07:24:52;;;;;;;2.57;2.10;;;0.90;99.90;;;;;;7371983;19;20781;-79
2024/01/20 07:27:18;;;;;;;2.80;1.77;;;0.90;99.90;;;;;;7393845;19;20235;-79
2024/01/20 07:29:43;;;;;;;1.67;1.57;;;0.90;99.90;;;;;;7369391;19;20202;-79
2024/01/20 07:32:11;;;;;;;2.93;1.83;;;0.90;99.90;;;;;;7368440;19;20706;-78
2024/01/20 07:34:37;;;;;;;2.63;2.07;;;0.90;99.90;;;;;;7369374;19;20193;-78
2024/01/20 07:37:03;;;;;;;3.67;2.33;;;0.90;99.90;;;;;;7367303;19;20214;-80
2024/01/20 07:39:29;;;;;;;2.80;2.60;;;1.00;99.90;;;;;;7392009;19;20143;-79
2024/01/20 07:41:54;;;;;;;2.37;2.17;;;0.90;99.90;;;;;;7371268;19;20185;-79
2024/01/20 07:44:20;;;;;;;2.27;2.07;;;1.00;99.90;;;;;;7370333;19;20617;-77
2024/01/20 07:46:46;;;;;;;2.97;2.20;;;0.90;99.90;;;;;;7370821;19;20189;-81
2024/01/20 07:49:12;;;;;;;3.53;2.90;;;1.00;99.90;;;;;;7369998;19;20186;-81
2024/01/20 07:51:37;;;;;;;3.03;2.77;;;1.00;99.90;;;;;;7391121;19;20146;-80
2024/01/20 07:54:03;;;;;;;2.20;1.70;;;0.90;99.90;;;;;;7372066;19;20515;-81
2024/01/20 07:56:31;;;;;;;3.40;2.47;;;0.90;99.90;;;;;;7372090;19;20309;-80
2024/01/20 07:58:57;;;;;;;3.17;2.07;;;0.40;99.90;;;;;;7372564;19;20213;-80
2024/01/20 08:01:22;;;;;;;1.73;1.43;;;0.50;99.90;;;;;;7372278;19;20189;-80
2024/01/20 08:03:48;;;;;;;2.97;2.67;;;0.70;99.90;;;;;;7370548;19;20632;-80
2024/01/20 08:06:14;;;;;;;1.60;1.47;;;0.80;99.90;;;;;;7392538;19;20158;-79
2024/01/20 08:08:42;;;;;;;2.20;2.00;;;0.70;99.90;;;;;;7368657;19;20194;-78
2024/01/20 08:11:08;;;;;;;2.37;1.53;;;0.80;99.90;;;;;;7364006;19;20193;-80
2024/01/20 08:13:34;;;;;;;1.87;1.77;;;1.00;99.90;;;;;;7368816;19;20182;-81
2024/01/20 08:15:59;;;;;;;1.97;1.70;;;1.00;99.90;;;;;;7369632;19;20158;-80
2024/01/20 08:18:25;;;;;;;2.03;1.37;;;0.90;99.90;;;;;;7391272;19;20206;-79
2024/01/20 08:20:51;;;;;;;1.93;1.50;;;0.90;99.90;;;;;;7367184;19;20200;-78
2024/01/20 08:23:17;;;;;;;4.97;2.47;;;0.90;99.90;;;;;;7367908;19;20208;-79
2024/01/20 08:25:44;;;;;;;3.53;2.23;;;0.80;99.90;;;;;;7367660;19;20192;-78
2024/01/20 08:28:10;;;;;;;1.70;1.60;;;0.70;99.90;;;;;;7369967;19;20186;-78
2024/01/20 08:30:35;;;;;;;2.27;2.07;;;0.70;99.90;;;;;;7391500;19;20141;-79
2024/01/20 08:33:01;;;;;;;2.73;2.53;;;0.70;99.90;;;;;;7363812;19;20190;-86
2024/01/20 08:35:27;;;;;;;1.50;1.40;;;0.80;99.90;;;;;;7363231;19;20193;-77
2024/01/20 08:37:53;;;;;;;1.83;1.60;;;0.60;99.90;;;;;;7367866;19;20204;-79
2024/01/20 08:40:18;;;;;;;1.90;1.70;;;0.70;99.90;;;;;;7365887;19;20590;-79
2024/01/20 08:42:44;;;;;;;1.73;1.63;;;0.60;99.90;;;;;;7389157;19;20146;-78
2024/01/20 08:45:10;;;;;;;3.10;1.30;;;0.70;99.90;;;;;;7368110;19;20197;-76
2024/01/20 08:47:35;;;;;;;2.63;2.43;;;0.70;99.90;;;;;;7365417;19;20207;-78
2024/01/20 08:50:01;;;;;;;2.70;2.50;;;0.60;99.90;;;;;;7361941;19;20196;-79
2024/01/20 08:52:27;;;;;;;4.07;2.83;;;0.80;99.90;;;;;;7366689;19;20200;-80
2024/01/20 08:54:53;;;;;;;3.20;2.37;;;0.90;99.90;;;;;;7367092;19;20154;-77
2024/01/20 08:57:22;;;;;;;1.50;1.40;;;0.80;99.90;;;;;;7384489;19;20138;-77
2024/01/20 08:59:48;;;;;;;1.93;1.83;;;0.90;99.90;;;;;;7365749;19;20647;-79
2024/01/20 09:02:14;;;;;;;1.40;1.10;;;0.80;99.90;;;;;;7363021;19;20189;-77
2024/01/20 09:04:39;;;;;;;2.33;2.13;;;0.90;99.90;;;;;;7363885;19;20627;-78
2024/01/20 09:07:05;;;;;;;2.40;2.20;;;0.80;99.90;;;;;;7360680;19;20474;-79
2024/01/20 09:09:31;;;;;;;2.13;2.03;;;0.90;99.90;;;;;;7385549;19;20135;-80
2024/01/20 09:11:56;;;;;;;1.37;1.27;;;0.70;99.90;;;;;;7363304;19;20201;-80
2024/01/20 09:14:22;;;;;;;2.97;2.50;;;1.00;99.90;;;;;;7363452;19;20186;-77
2024/01/20 09:16:48;;;;;;;1.90;1.77;;;1.10;99.90;;;;;;7364027;19;20246;-81
2024/01/20 09:19:14;;;;;;;3.17;2.80;;;0.90;99.90;;;;;;7362125;19;20840;-79
2024/01/20 09:21:44;;;;;;;2.97;2.70;;;1.10;99.90;;;;;;7387592;19;20146;-79
2024/01/20 09:24:10;;;;;;;2.10;1.97;;;1.30;99.90;;;;;;7370878;19;20189;-80
2024/01/20 09:26:35;;;;;;;1.70;1.60;;;1.10;99.90;;;;;;7371355;19;20196;-79
2024/01/20 09:29:01;;;;;;;2.07;1.87;;;1.20;99.90;;;;;;7371927;19;20639;-81
2024/01/20 09:31:27;;;;;;;6.47;2.53;;;1.30;99.90;;;;;;7371945;19;20198;-79
2024/01/20 09:33:52;;;;;;;2.67;2.37;;;1.20;99.90;;;;;;7371135;19;20159;-77
2024/01/20 09:36:18;;;;;;;2.90;2.60;;;1.20;99.90;;;;;;7393258;19;20680;-79
2024/01/20 09:38:44;;;;;;;2.67;1.70;;;0.90;99.90;;;;;;7371073;19;20592;-78
2024/01/20 09:41:10;;;;;;;2.87;1.73;;;0.80;99.90;;;;;;7374556;19;20185;-78
2024/01/20 09:43:39;;;;;;;2.57;2.13;;;0.70;99.90;;;;;;7371011;19;20202;-78
2024/01/20 09:46:06;;;;;;;2.40;2.17;;;1.00;99.90;;;;;;7374774;19;20126;-77
2024/01/20 09:48:32;;;;;;;1.67;1.57;;;1.10;99.90;;;;;;7394801;19;20183;-79
2024/01/20 09:50:58;;;;;;;2.07;1.97;;;1.20;99.90;;;;;;7372520;19;20277;-81
2024/01/20 09:53:25;;;;;;;1.57;1.43;;;1.20;99.90;;;;;;7374994;19;20213;-82
2024/01/20 09:55:51;;;;;;;2.67;1.83;;;1.20;99.90;;;;;;7373534;19;20197;-80
2024/01/20 09:58:18;;;;;;;2.47;2.23;;;1.40;99.90;;;;;;7373694;19;20182;-79
2024/01/20 10:00:44;;;;;;;2.13;1.63;;;1.50;99.90;;;;;;7393549;19;20158;-80
2024/01/20 10:03:11;;;;;;;2.57;1.77;;;1.50;99.90;;;;;;7373215;19;20604;-80
2024/01/20 10:05:37;;;;;;;1.17;1.17;;;1.50;99.90;;;;;;7373041;19;20925;-77
2024/01/20 10:08:05;;;;;;;3.13;2.57;;;1.30;99.90;;;;;;7373928;19;20189;-78
2024/01/20 10:10:32;;;;;;;1.80;1.67;;;1.20;99.90;;;;;;7370578;19;20190;-77
2024/01/20 10:12:58;;;;;;;1.50;1.30;;;1.40;99.90;;;;;;7373829;19;20186;-79
2024/01/20 10:15:26;;;;;;;1.60;1.50;;;1.10;99.90;;;;;;7394806;19;20159;-78
2024/01/20 10:17:52;;;;;;;1.40;1.30;;;1.00;99.90;;;;;;7374182;19;20669;-77
2024/01/20 10:20:22;;;;;;;2.17;2.03;;;1.00;99.90;;;;;;7371101;19;20198;-78
2024/01/20 10:22:49;;;;;;;4.90;2.50;;;1.30;99.90;;;;;;7373624;19;20228;-80
2024/01/20 10:25:19;;;;;;;2.13;1.93;;;1.40;99.90;;;;;;7373306;19;20723;-80
2024/01/20 10:27:50;;;;;;;2.10;1.80;;;1.60;99.90;;;;;;7395558;19;20472;-79
2024/01/20 10:30:17;;;;;;;1.57;1.47;;;1.60;99.90;;;;;;7372374;19;20182;-78
2024/01/20 10:32:46;;;;;;;2.13;1.93;;;1.60;99.90;;;;;;7370588;19;20686;-78
2024/01/20 10:35:15;;;;;;;2.27;2.07;;;1.70;99.90;;;;;;7371856;19;20196;-78
2024/01/20 10:38:00;;;;;;;1.60;1.47;;;1.70;99.90;;;;;;7372985;19;20185;-78
2024/01/20 10:40:26;;;;;;;2.43;1.80;;;1.50;99.90;;;;;;7369069;19;20702;-77
2024/01/20 10:43:00;;;;;;;2.60;2.00;;;1.60;99.90;;;;;;7368629;19;20136;-78
2024/01/20 10:45:30;;;;;;;1.00;1.00;;;1.70;99.90;;;;;;7390299;19;20126;-78
2024/01/20 10:48:07;;;;;;;2.70;1.97;;;1.90;99.90;;;;;;7370620;19;20186;-79
2024/01/20 10:50:35;;;;;;;2.80;1.73;;;1.90;99.90;;;;;;7367152;19;20198;-78
2024/01/20 10:53:02;;;;;;;3.60;2.47;;;2.00;99.90;;;;;;7366962;19;20286;-78
2024/01/20 10:55:30;;;;;;;2.67;2.27;;;2.10;99.90;;;;;;7367983;19;20190;-77
2024/01/20 10:57:57;;;;;;;0.97;0.93;;;2.10;99.90;;;;;;7368632;19;20171;-78
2024/01/20 11:00:23;;;;;;;2.87;2.27;;;2.20;99.90;;;;;;7389818;19;20172;-78
2024/01/20 11:02:49;;;;;;;1.57;1.47;;;2.30;99.90;;;;;;7369733;19;20190;-78
2024/01/20 11:05:21;;;;;;;4.40;3.00;;;2.40;99.90;;;;;;7370636;19;20642;-79
2024/01/20 11:08:04;;;;;;;2.63;2.27;;;2.50;99.90;;;;;;7370546;19;20249;-78
2024/01/20 11:10:37;;;;;;;3.40;2.30;;;2.60;99.90;;;;;;7371962;19;20190;-78
2024/01/20 11:13:05;;;;;;;2.33;2.10;;;2.00;99.90;;;;;;7370830;19;20185;-78
2024/01/20 11:15:32;;;;;;;2.77;2.47;;;2.20;99.90;;;;;;7395461;19;20210;-77
2024/01/20 11:17:59;;;;;;;3.60;2.63;;;2.30;99.90;;;;;;7372367;19;20206;-77
2024/01/20 11:20:26;;;;;;;3.57;2.63;;;2.40;99.90;;;;;;7368309;19;20236;-79
2024/01/20 11:22:53;;;;;;;3.73;2.57;;;2.10;99.90;;;;;;7371478;19;20205;-77
2024/01/20 11:25:21;;;;;;;4.90;3.53;;;2.30;99.90;;;;;;7369675;19;20194;-77
2024/01/20 11:27:50;;;;;;;4.33;3.07;;;2.50;99.90;;;;;;7388390;19;20549;-78
2024/01/20 11:30:29;;;;;;;3.63;3.17;;;2.60;99.90;;;;;;7391845;19;20147;-78
2024/01/20 11:32:56;;;;;;;4.03;1.57;;;2.70;99.90;;;;;;7371987;19;20270;-78
2024/01/20 11:35:23;;;;;;;3.73;2.70;;;2.60;99.90;;;;;;7368432;19;20193;-78
2024/01/20 11:37:49;;;;;;;2.33;2.13;;;2.70;99.90;;;;;;7371126;19;20584;-78
2024/01/20 11:40:15;;;;;;;3.00;2.17;;;2.80;99.90;;;;;;7368787;19;20201;-78
2024/01/20 11:42:41;;;;;;;3.53;3.23;;;2.80;99.90;;;;;;7393109;19;20163;-78
2024/01/20 11:45:07;;;;;;;3.70;3.27;;;2.90;99.90;;;;;;7370886;19;20564;-78
2024/01/20 11:47:34;;;;;;;3.97;3.27;;;2.90;99.90;;;;;;7369375;19;20632;-79
2024/01/20 11:50:01;;;;;;;3.67;3.37;;;3.00;99.90;;;;;;7368709;19;20542;-78
2024/01/20 11:52:27;;;;;;;2.87;2.20;;;2.90;99.90;;;;;;7371088;19;20194;-78
2024/01/20 11:54:53;;;;;;;2.30;2.10;;;2.80;99.90;;;;;;7369149;19;20142;-78
2024/01/20 11:57:24;;;;;;;2.87;2.60;;;2.00;99.90;;;;;;7392852;19;20163;-78
2024/01/20 11:59:50;;;;;;;3.37;3.00;;;2.50;99.90;;;;;;7368010;19;20555;-79
2024/01/20 12:02:20;;;;;;;3.60;2.57;;;2.90;99.90;;;;;;7370013;19;20185;-78
2024/01/20 12:04:46;;;;;;;4.73;2.87;;;3.20;99.90;;;;;;7368985;19;20197;-78
2024/01/20 12:07:12;;;;;;;3.33;3.03;;;3.30;99.90;;;;;;7369646;19;20249;-79
2024/01/20 12:09:43;;;;;;;2.90;2.47;;;3.40;99.90;;;;;;7391733;19;20572;-78
2024/01/20 12:12:11;;;;;;;3.60;3.03;;;3.50;99.90;;;;;;7371360;19;20249;-79
2024/01/20 12:14:37;;;;;;;2.33;2.07;;;3.60;99.90;;;;;;7370471;19;20647;-78
2024/01/20 12:17:11;;;;;;;3.67;2.73;;;3.60;99.90;;;;;;7369754;19;20186;-79
2024/01/20 12:19:40;;;;;;;3.13;2.63;;;3.70;99.90;;;;;;7367138;19;20216;-79
2024/01/20 12:22:12;;;;;;;3.43;2.83;;;3.80;99.90;;;;;;7370500;19;20186;-79
2024/01/20 12:24:37;;;;;;;3.47;2.47;;;3.80;99.90;;;;;;7392368;19;20126;-79
2024/01/20 12:27:04;;;;;;;4.03;3.07;;;3.80;99.90;;;;;;7369191;19;20209;-79
2024/01/20 12:29:31;;;;;;;5.63;2.50;;;3.80;99.90;;;;;;7369196;19;20358;-78
2024/01/20 12:31:58;;;;;;;3.10;2.30;;;3.90;99.90;;;;;;7369418;19;20262;-79
2024/01/20 12:34:25;;;;;;;2.10;1.90;;;4.00;99.90;;;;;;7368569;19;20203;-78
2024/01/20 12:36:55;;;;;;;4.37;2.97;;;4.20;99.90;;;;;;7369676;19;20145;-79
2024/01/20 12:39:25;;;;;;;2.43;2.20;;;4.40;99.90;;;;;;7391288;19;20131;-78
2024/01/20 12:41:52;;;;;;;4.07;2.70;;;4.50;99.90;;;;;;7368314;19;20186;-78
2024/01/20 12:44:18;;;;;;;4.27;2.80;;;4.60;99.90;;;;;;7369255;19;20536;-78
2024/01/20 12:46:44;;;;;;;2.43;2.03;;;4.50;99.90;;;;;;7368608;19;20213;-79
2024/01/20 12:49:10;;;;;;;3.23;2.33;;;4.80;99.90;;;;;;7368728;19;20190;-78
2024/01/20 12:51:36;;;;;;;3.20;2.93;;;5.10;99.90;;;;;;7389796;19;20623;-79
2024/01/20 12:54:03;;;;;;;2.60;1.87;;;5.30;99.90;;;;;;7370045;19;20189;-80